Time;durP1;ratioP1;P1;durP2;ratioP2;P2;SDS_P1;SDS_P2;PMS_P1;PMS_P2;Temp;Humidity;BMP_temperature;BMP_pressure;BME280_temperature;BME280_humidity;BME280_pressure;Samples;Min_cycle;Max_cycle;Signal;HPM_P1;HPM_P2
2023/10/21 00:01:36;;;;;;;;;0.00;0.00;;;;;18.13;100.00;98330.56;4998709;28;64452;-73
2023/10/21 00:04:02;;;;;;;;;3.00;3.00;;;;;18.14;100.00;98338.47;4987586;27;61440;-72
2023/10/21 00:06:28;;;;;;;;;5.00;3.00;;;;;18.18;100.00;98340.00;4991268;28;46443;-73
2023/10/21 00:08:53;;;;;;;;;4.00;3.00;;;;;18.19;100.00;98339.06;4983352;28;45597;-72
2023/10/21 00:11:19;;;;;;;;;2.00;2.00;;;;;18.19;100.00;98343.53;4991199;28;45533;-73
2023/10/21 00:13:44;;;;;;;;;2.00;2.00;;;;;18.19;100.00;98352.41;4993929;28;45694;-73
2023/10/21 00:16:11;;;;;;;;;3.33;3.00;;;;;18.21;100.00;98355.84;5002254;28;46314;-73
2023/10/21 00:18:36;;;;;;;;;4.00;2.00;;;;;18.24;100.00;98358.34;4990832;28;46342;-73
2023/10/21 00:21:01;;;;;;;;;3.00;3.00;;;;;18.25;100.00;98360.06;4985801;28;45625;-73
2023/10/21 00:23:27;;;;;;;;;1.00;1.00;;;;;18.29;100.00;98361.59;4984721;28;45462;-73
2023/10/21 00:25:53;;;;;;;;;0.33;0.33;;;;;18.28;100.00;98369.72;4989013;28;46296;-73
2023/10/21 00:28:18;;;;;;;;;2.00;1.00;;;;;18.23;100.00;98386.00;4991294;28;45485;-72
2023/10/21 00:30:45;;;;;;;;;2.00;1.00;;;;;18.16;100.00;98399.81;4988393;28;49811;-73
2023/10/21 00:33:12;;;;;;;;;0.00;0.00;;;;;18.00;100.00;98387.38;4992838;28;45578;-73
2023/10/21 00:35:37;;;;;;;;;0.00;0.00;;;;;17.88;100.00;98385.41;4994435;28;46760;-73
2023/10/21 00:38:03;;;;;;;;;0.00;0.00;;;;;17.78;100.00;98398.41;4980236;28;66276;-72
2023/10/21 00:40:28;;;;;;;;;0.00;0.00;;;;;17.72;100.00;98397.88;4986788;28;45261;-72
2023/10/21 00:42:54;;;;;;;;;0.00;0.00;;;;;17.67;100.00;98416.81;4992598;28;62825;-74
2023/10/21 00:45:19;;;;;;;;;0.00;0.00;;;;;17.60;100.00;98418.13;4992760;28;45585;-72
2023/10/21 00:47:44;;;;;;;;;0.00;0.00;;;;;17.52;100.00;98425.66;4987738;28;66717;-73
2023/10/21 00:50:10;;;;;;;;;0.00;0.00;;;;;17.46;100.00;98450.88;5008404;28;56892;-73
2023/10/21 00:52:41;;;;;;;;;1.00;0.00;;;;;17.42;100.00;98444.03;4989786;28;53298;-72
2023/10/21 00:55:08;;;;;;;;;0.00;0.00;;;;;17.36;100.00;98454.16;4989584;28;47335;-72
2023/10/21 00:57:36;;;;;;;;;0.00;0.00;;;;;17.35;100.00;98469.28;4989307;28;45533;-72
2023/10/21 01:00:03;;;;;;;;;0.00;0.00;;;;;17.33;100.00;98473.00;4998338;28;45456;-74
2023/10/21 01:02:28;;;;;;;;;1.00;0.00;;;;;17.28;100.00;98474.09;4988021;28;45554;-72
2023/10/21 01:04:53;;;;;;;;;0.00;0.00;;;;;17.35;100.00;98477.28;4990960;28;70076;-71
2023/10/21 01:07:19;;;;;;;;;0.67;0.00;;;;;17.38;100.00;98484.28;4989691;28;52242;-73
2023/10/21 01:09:44;;;;;;;;;1.00;0.00;;;;;17.33;100.00;98494.34;5015116;28;62076;-73
2023/10/21 01:12:09;;;;;;;;;0.00;0.00;;;;;17.29;100.00;98499.81;4995323;28;45436;-72
2023/10/21 01:14:35;;;;;;;;;0.00;0.00;;;;;17.28;100.00;98499.91;4997798;28;62658;-72
2023/10/21 01:17:00;;;;;;;;;0.00;0.00;;;;;17.25;100.00;98506.25;4997680;28;63053;-72
2023/10/21 01:19:25;;;;;;;;;1.00;0.00;;;;;17.23;100.00;98518.84;4981523;28;63760;-73
2023/10/21 01:21:51;;;;;;;;;1.00;0.00;;;;;17.21;100.00;98515.41;4991246;28;45801;-73
2023/10/21 01:24:16;;;;;;;;;0.00;0.00;;;;;17.19;100.00;98514.59;5004501;28;45873;-73
2023/10/21 01:26:42;;;;;;;;;0.00;0.00;;;;;17.18;100.00;98512.00;4988659;28;45347;-72
2023/10/21 01:29:09;;;;;;;;;0.00;0.00;;;;;17.16;100.00;98521.91;5018577;28;64713;-73
2023/10/21 01:31:35;;;;;;;;;1.00;0.00;;;;;17.18;100.00;98520.00;4987407;27;45468;-73
2023/10/21 01:34:00;;;;;;;;;1.00;0.00;;;;;17.20;100.00;98540.31;4992267;28;47681;-73
2023/10/21 01:36:27;;;;;;;;;0.00;0.00;;;;;17.19;100.00;98529.72;4989426;28;63621;-72
2023/10/21 01:38:52;;;;;;;;;0.00;0.00;;;;;17.19;100.00;98538.59;4989433;28;45469;-72
2023/10/21 01:41:18;;;;;;;;;0.00;0.00;;;;;17.20;100.00;98550.13;4986552;28;45614;-73
2023/10/21 01:43:44;;;;;;;;;1.00;0.00;;;;;17.19;100.00;98551.06;4980077;28;47315;-73
2023/10/21 01:46:09;;;;;;;;;0.00;0.00;;;;;17.22;100.00;98557.13;4994532;28;45399;-74
2023/10/21 01:48:34;;;;;;;;;1.00;0.00;;;;;17.20;100.00;98550.97;5009400;28;45470;-72
2023/10/21 01:51:04;;;;;;;;;0.00;0.00;;;;;17.22;100.00;98556.25;4992417;27;46377;-73
2023/10/21 01:53:32;;;;;;;;;1.00;0.00;;;;;17.20;100.00;98550.97;4985406;28;47356;-72
2023/10/21 01:56:01;;;;;;;;;0.00;0.00;;;;;17.18;100.00;98554.69;4986629;28;45526;-74
2023/10/21 01:58:28;;;;;;;;;0.00;0.00;;;;;17.17;100.00;98555.63;5015156;28;45547;-72
2023/10/21 02:00:53;;;;;;;;;0.00;0.00;;;;;17.14;100.00;98561.97;4999947;27;45650;-73
2023/10/21 02:03:19;;;;;;;;;0.33;0.00;;;;;17.15;100.00;98571.72;5007669;28;66809;-73
2023/10/21 02:05:44;;;;;;;;;2.33;0.00;;;;;17.15;100.00;98569.06;4986467;28;45659;-73
2023/10/21 02:08:09;;;;;;;;;0.00;0.00;;;;;17.22;100.00;98573.13;4988985;28;65474;-72
2023/10/21 02:10:38;;;;;;;;;1.00;0.00;;;;;17.21;100.00;98571.41;5009684;28;62753;-73
2023/10/21 02:13:04;;;;;;;;;0.67;0.00;;;;;17.22;100.00;98582.94;4999877;28;46082;-73
2023/10/21 02:15:29;;;;;;;;;0.33;0.00;;;;;17.25;100.00;98588.94;4986177;28;68254;-73
2023/10/21 02:17:54;;;;;;;;;0.33;0.00;;;;;17.24;100.00;98579.22;5136331;22;53287;-73
2023/10/21 02:20:20;;;;;;;;;0.33;0.33;;;;;17.33;100.00;98601.03;4991773;28;63365;-73
2023/10/21 02:22:45;;;;;;;;;0.00;0.00;;;;;17.31;100.00;98592.22;4990435;28;49206;-72
2023/10/21 02:25:12;;;;;;;;;0.00;0.00;;;;;17.26;100.00;98595.16;4992390;28;67832;-73
2023/10/21 02:27:39;;;;;;;;;3.00;0.00;;;;;17.24;100.00;98597.88;4992531;28;45232;-72
2023/10/21 02:30:06;;;;;;;;;0.00;0.00;;;;;17.19;100.00;98597.25;4993312;28;45561;-73
2023/10/21 02:32:31;;;;;;;;;1.00;0.00;;;;;17.18;100.00;98603.53;4992972;28;45710;-72
2023/10/21 02:34:57;;;;;;;;;0.00;0.00;;;;;17.11;100.00;98609.28;4989714;28;58915;-72
2023/10/21 02:37:22;;;;;;;;;0.00;0.00;;;;;17.07;100.00;98619.25;4993269;28;45276;-73
2023/10/21 02:39:48;;;;;;;;;2.00;0.00;;;;;17.05;100.00;98621.13;4986851;28;45566;-74
2023/10/21 02:42:13;;;;;;;;;0.00;0.00;;;;;17.03;100.00;98617.66;4993401;28;45661;-73
2023/10/21 02:44:39;;;;;;;;;3.00;0.00;;;;;17.05;100.00;98622.94;4992950;28;55095;-74
2023/10/21 02:47:04;;;;;;;;;0.00;0.00;;;;;17.03;100.00;98629.19;4992590;28;45626;-73
2023/10/21 02:49:30;;;;;;;;;0.00;0.00;;;;;17.06;100.00;98630.84;4992888;28;46809;-73
2023/10/21 02:51:55;;;;;;;;;0.00;0.00;;;;;17.08;100.00;98636.97;4991086;28;46726;-73
2023/10/21 02:54:21;;;;;;;;;0.33;0.00;;;;;17.12;100.00;98633.19;4992604;28;45517;-73
2023/10/21 02:56:46;;;;;;;;;1.67;0.00;;;;;17.10;100.00;98627.09;4991955;28;52724;-73
2023/10/21 02:59:12;;;;;;;;;1.00;0.00;;;;;17.10;100.00;98635.09;4994915;28;45632;-73
2023/10/21 03:01:37;;;;;;;;;0.00;0.00;;;;;17.08;100.00;98641.44;4992471;28;69248;-73
2023/10/21 03:04:03;;;;;;;;;1.00;0.00;;;;;17.08;100.00;98644.09;4990629;28;67242;-73
2023/10/21 03:06:28;;;;;;;;;0.33;0.00;;;;;17.08;100.00;98649.44;4993557;28;45834;-73
2023/10/21 03:08:53;;;;;;;;;1.00;0.00;;;;;17.05;100.00;98646.94;5010556;28;45423;-73
2023/10/21 03:11:19;;;;;;;;;1.00;0.00;;;;;17.07;100.00;98663.72;4994683;28;65500;-72
2023/10/21 03:13:44;;;;;;;;;0.00;0.00;;;;;17.07;100.00;98653.91;4992663;28;65556;-73
2023/10/21 03:16:13;;;;;;;;;5.67;0.00;;;;;17.07;100.00;98666.38;4995734;28;45216;-73
2023/10/21 03:18:40;;;;;;;;;0.00;0.00;;;;;17.06;100.00;98652.19;4993372;28;45504;-72
2023/10/21 03:21:06;;;;;;;;;2.00;1.00;;;;;17.07;100.00;98666.38;4993530;28;47387;-73
2023/10/21 03:23:31;;;;;;;;;0.00;0.00;;;;;17.05;100.00;98666.47;5009668;28;45533;-73
2023/10/21 03:25:58;;;;;;;;;1.00;0.00;;;;;17.01;100.00;98665.75;4994295;28;56451;-72
2023/10/21 03:28:26;;;;;;;;;0.00;0.00;;;;;16.99;100.00;98661.41;4994771;28;45254;-73
2023/10/21 03:30:57;;;;;;;;;0.00;0.00;;;;;16.95;100.00;98670.53;4993994;28;47386;-73
2023/10/21 03:33:27;;;;;;;;;0.00;0.00;;;;;16.90;100.00;98665.41;4995406;28;45987;-72
2023/10/21 03:35:53;;;;;;;;;0.00;0.00;;;;;16.83;100.00;98669.31;5016052;28;45575;-72
2023/10/21 03:38:19;;;;;;;;;1.00;0.00;;;;;16.77;100.00;98681.13;4995265;28;45522;-73
2023/10/21 03:40:44;;;;;;;;;0.00;0.00;;;;;16.77;100.00;98675.78;4994296;28;46045;-72
2023/10/21 03:43:10;;;;;;;;;3.00;0.00;;;;;16.74;100.00;98683.97;4995823;28;45444;-73
2023/10/21 03:45:36;;;;;;;;;2.00;0.67;;;;;16.71;100.00;98692.09;4994892;28;47886;-73
2023/10/21 03:48:03;;;;;;;;;0.00;0.00;;;;;16.67;100.00;98689.59;4995041;28;45510;-72
2023/10/21 03:50:28;;;;;;;;;0.00;0.00;;;;;16.69;100.00;98704.59;4993791;28;47540;-73
2023/10/21 03:52:53;;;;;;;;;1.00;0.00;;;;;16.65;100.00;98695.00;4993869;28;45884;-72
2023/10/21 03:55:19;;;;;;;;;1.00;0.00;;;;;16.68;100.00;98710.00;4994677;28;53656;-75
2023/10/21 03:57:44;;;;;;;;;1.33;0.00;;;;;16.67;100.00;98718.91;4993732;28;53986;-74
2023/10/21 04:00:12;;;;;;;;;1.67;0.00;;;;;16.63;100.00;98709.38;4994344;28;46327;-72
2023/10/21 04:02:37;;;;;;;;;0.00;0.00;;;;;16.62;100.00;98710.28;4994523;28;45301;-75
2023/10/21 04:05:06;;;;;;;;;3.00;0.00;;;;;16.67;100.00;98719.81;4991624;28;45742;-74
2023/10/21 04:07:32;;;;;;;;;4.00;0.00;;;;;16.62;100.00;98721.81;4995134;28;45372;-73
2023/10/21 04:09:57;;;;;;;;;0.00;0.00;;;;;16.61;100.00;98722.75;4994782;28;45609;-74
2023/10/21 04:12:22;;;;;;;;;1.33;0.00;;;;;16.62;100.00;98724.50;4995343;28;45522;-74
2023/10/21 04:14:48;;;;;;;;;0.00;0.00;;;;;16.60;100.00;98729.00;4993813;28;61542;-74
2023/10/21 04:17:13;;;;;;;;;1.00;0.00;;;;;16.60;100.00;98725.47;4993651;28;49748;-74
2023/10/21 04:19:39;;;;;;;;;1.00;0.00;;;;;16.54;100.00;98739.97;4994940;28;46309;-74
2023/10/21 04:22:05;;;;;;;;;0.00;0.00;;;;;16.55;100.00;98743.47;4994084;28;45447;-75
2023/10/21 04:24:30;;;;;;;;;1.33;0.00;;;;;16.55;100.00;98749.69;4991629;28;45371;-74
2023/10/21 04:26:55;;;;;;;;;0.00;0.00;;;;;16.55;100.00;98762.13;4992980;28;45443;-74
2023/10/21 04:29:21;;;;;;;;;1.00;0.00;;;;;16.54;100.00;98763.94;4993874;28;50582;-74
2023/10/21 04:31:46;;;;;;;;;0.00;0.00;;;;;16.57;100.00;98754.94;4993933;28;66109;-74
2023/10/21 04:34:12;;;;;;;;;1.33;0.00;;;;;16.56;100.00;98759.38;4994321;28;49361;-74
2023/10/21 04:36:38;;;;;;;;;2.00;0.00;;;;;16.55;100.00;98768.31;4995071;28;45539;-74
2023/10/21 04:39:03;;;;;;;;;3.67;0.00;;;;;16.60;100.00;98776.97;4993857;28;46300;-75
2023/10/21 04:41:29;;;;;;;;;0.33;0.33;;;;;16.62;100.00;98783.13;4993994;28;45368;-73
2023/10/21 04:43:55;;;;;;;;;1.00;0.00;;;;;16.63;100.00;98766.19;4995098;27;45351;-74
2023/10/21 04:46:20;;;;;;;;;1.00;0.00;;;;;16.64;100.00;98770.56;4993745;28;45573;-74
2023/10/21 04:48:46;;;;;;;;;0.00;0.00;;;;;16.66;100.00;98789.13;4994240;28;58050;-75
2023/10/21 04:51:11;;;;;;;;;2.33;0.00;;;;;16.68;100.00;98776.63;4993841;28;45375;-74
2023/10/21 04:53:37;;;;;;;;;1.00;0.00;;;;;16.70;100.00;98780.94;4994061;28;45464;-75
2023/10/21 04:56:03;;;;;;;;;1.00;0.00;;;;;16.72;100.00;98795.09;4994241;28;45567;-74
2023/10/21 04:58:28;;;;;;;;;0.33;0.00;;;;;16.74;100.00;98795.03;4993570;28;46677;-74
2023/10/21 05:00:54;;;;;;;;;0.67;0.00;;;;;16.72;100.00;98788.88;4998545;28;57176;-74
2023/10/21 05:03:19;;;;;;;;;0.00;0.00;;;;;16.76;100.00;98801.13;4994188;28;45439;-75
2023/10/21 05:05:45;;;;;;;;;3.67;0.00;;;;;16.76;100.00;98802.00;4989092;28;55631;-74
2023/10/21 05:08:11;;;;;;;;;2.00;0.00;;;;;16.79;100.00;98805.47;4990555;28;46578;-75
2023/10/21 05:10:36;;;;;;;;;1.00;0.00;;;;;16.82;100.00;98808.84;4994015;28;45312;-75
2023/10/21 05:13:01;;;;;;;;;0.00;0.00;;;;;16.76;100.00;98815.31;4993767;28;45253;-74
2023/10/21 05:15:27;;;;;;;;;0.33;0.00;;;;;16.82;100.00;98821.31;4994055;28;45442;-74
2023/10/21 05:17:52;;;;;;;;;3.00;0.00;;;;;16.83;100.00;98807.94;4992846;28;52931;-74
2023/10/21 05:20:18;;;;;;;;;0.67;0.00;;;;;16.77;100.00;98814.38;4992764;28;45409;-74
2023/10/21 05:22:43;;;;;;;;;0.67;0.00;;;;;16.77;100.00;98811.72;4994065;28;45634;-74
2023/10/21 05:25:11;;;;;;;;;0.00;0.00;;;;;16.74;100.00;98814.53;4992780;28;45269;-74
2023/10/21 05:27:37;;;;;;;;;0.67;0.00;;;;;16.67;100.00;98818.41;4993461;28;47881;-74
2023/10/21 05:30:03;;;;;;;;;0.67;0.00;;;;;16.63;100.00;98827.47;4993381;28;50305;-74
2023/10/21 05:32:28;;;;;;;;;0.00;0.00;;;;;16.61;100.00;98829.31;4994154;28;45584;-74
2023/10/21 05:34:54;;;;;;;;;0.00;0.00;;;;;16.61;100.00;98839.97;5009643;28;45565;-73
2023/10/21 05:37:19;;;;;;;;;0.00;0.00;;;;;16.60;100.00;98837.38;4993375;28;46270;-74
2023/10/21 05:39:45;;;;;;;;;0.00;0.00;;;;;16.61;100.00;98839.97;4993057;28;65129;-75
2023/10/21 05:42:10;;;;;;;;;2.67;0.00;;;;;16.62;100.00;98835.50;4992899;28;52546;-75
2023/10/21 05:44:36;;;;;;;;;0.00;0.00;;;;;16.59;100.00;98844.53;4993641;28;45245;-74
2023/10/21 05:47:01;;;;;;;;;3.33;0.00;;;;;16.58;100.00;98844.59;4994028;28;47261;-74
2023/10/21 05:49:26;;;;;;;;;0.00;0.00;;;;;16.58;100.00;98839.28;4990663;28;47686;-74
2023/10/21 05:51:52;;;;;;;;;3.33;1.33;;;;;16.56;100.00;98860.63;4993633;28;45437;-74
2023/10/21 05:54:17;;;;;;;;;3.00;0.00;;;;;16.54;100.00;98846.53;4992958;28;52068;-74
2023/10/21 05:56:42;;;;;;;;;3.33;0.67;;;;;16.50;100.00;98855.59;4999713;28;45517;-74
2023/10/21 05:59:08;;;;;;;;;1.33;0.00;;;;;16.46;100.00;98856.69;5001207;28;64667;-74
2023/10/21 06:01:33;;;;;;;;;1.00;1.00;;;;;16.44;100.00;98863.84;4991420;28;63113;-74
2023/10/21 06:03:58;;;;;;;;;5.00;0.00;;;;;16.44;100.00;98848.72;4989775;28;45509;-74
2023/10/21 06:06:24;;;;;;;;;1.67;1.00;;;;;16.44;100.00;98850.53;4990527;28;46117;-74
2023/10/21 06:08:49;;;;;;;;;3.00;0.00;;;;;16.45;100.00;98861.13;4992870;28;49741;-76
2023/10/21 06:11:14;;;;;;;;;1.00;1.00;;;;;16.44;100.00;98869.19;4983673;28;60639;-75
2023/10/21 06:13:40;;;;;;;;;3.00;1.33;;;;;16.42;100.00;98865.72;4987629;28;45633;-73
2023/10/21 06:16:06;;;;;;;;;3.67;2.00;;;;;16.40;100.00;98856.94;4982247;28;46184;-72
2023/10/21 06:18:32;;;;;;;;;1.67;0.67;;;;;16.42;100.00;98860.41;4983052;28;45490;-73
2023/10/21 06:20:57;;;;;;;;;7.67;1.00;;;;;16.39;100.00;98873.84;4983260;28;45454;-71
2023/10/21 06:23:23;;;;;;;;;0.00;0.00;;;;;16.40;100.00;98886.22;4981926;28;45363;-71
2023/10/21 06:25:48;;;;;;;;;1.67;0.00;;;;;16.40;100.00;98878.22;4983723;28;46483;-73
2023/10/21 06:28:14;;;;;;;;;3.00;2.00;;;;;16.43;100.00;98880.78;4979944;28;69238;-73
2023/10/21 06:30:42;;;;;;;;;3.33;0.00;;;;;16.39;100.00;98879.19;4978527;28;45399;-73
2023/10/21 06:33:11;;;;;;;;;7.67;1.33;;;;;16.36;100.00;98882.84;4982660;28;45582;-74
2023/10/21 06:35:37;;;;;;;;;3.33;1.00;;;;;16.37;100.00;98895.22;4984064;27;45708;-73
2023/10/21 06:38:04;;;;;;;;;3.00;1.00;;;;;16.32;100.00;98889.25;4992890;27;45532;-72
2023/10/21 06:40:29;;;;;;;;;4.00;0.00;;;;;16.33;100.00;98890.09;4992305;28;45502;-74
2023/10/21 06:42:56;;;;;;;;;3.33;2.00;;;;;16.30;100.00;98898.22;4995247;27;45551;-73
2023/10/21 06:45:21;;;;;;;;;2.67;1.00;;;;;16.29;100.00;98904.47;4985944;28;47553;-73
2023/10/21 06:47:47;;;;;;;;;2.67;0.33;;;;;16.31;100.00;98902.63;4986607;27;45441;-73
2023/10/21 06:50:12;;;;;;;;;6.00;2.00;;;;;16.34;100.00;98903.34;4992839;27;61554;-73
2023/10/21 06:52:37;;;;;;;;;0.33;0.00;;;;;16.35;100.00;98894.44;4987721;27;45372;-73
2023/10/21 06:55:03;;;;;;;;;5.00;1.00;;;;;16.34;100.00;98897.16;4988821;27;46550;-73
2023/10/21 06:57:28;;;;;;;;;3.00;0.00;;;;;16.35;100.00;98910.44;5000283;27;45432;-73
2023/10/21 06:59:55;;;;;;;;;4.00;1.00;;;;;16.34;100.00;98906.00;4988383;28;64689;-73
2023/10/21 07:02:20;;;;;;;;;1.00;1.00;;;;;16.33;100.00;98925.59;4998015;27;45671;-73
2023/10/21 07:04:46;;;;;;;;;6.00;0.33;;;;;16.31;100.00;98924.81;4993646;27;45678;-73
2023/10/21 07:07:11;;;;;;;;;2.67;1.00;;;;;16.29;100.00;98925.78;4998548;27;45814;-73
2023/10/21 07:09:39;;;;;;;;;2.00;1.00;;;;;16.28;100.00;98932.91;4989736;27;64035;-74
2023/10/21 07:12:05;;;;;;;;;3.33;1.00;;;;;16.29;100.00;98942.63;4990942;28;45305;-73
2023/10/21 07:14:30;;;;;;;;;3.67;1.00;;;;;16.34;100.00;98953.09;4992267;28;46712;-73
2023/10/21 07:16:56;;;;;;;;;2.00;0.33;;;;;16.37;100.00;98952.97;4991356;27;45497;-73
2023/10/21 07:19:22;;;;;;;;;1.00;1.00;;;;;16.34;100.00;98953.94;4988314;28;45354;-73
2023/10/21 07:21:48;;;;;;;;;1.00;1.00;;;;;16.40;100.00;98958.16;4992695;28;45323;-74
2023/10/21 07:24:14;;;;;;;;;0.67;0.67;;;;;16.41;100.00;98952.78;4991490;28;46971;-74
2023/10/21 07:26:39;;;;;;;;;1.00;1.00;;;;;16.40;100.00;98955.47;4986430;27;45486;-74
2023/10/21 07:29:07;;;;;;;;;2.00;0.33;;;;;16.34;100.00;98963.75;4992045;27;52414;-73
2023/10/21 07:31:33;;;;;;;;;6.00;1.33;;;;;16.33;100.00;98968.19;4987066;27;45490;-73
2023/10/21 07:33:59;;;;;;;;;1.67;0.67;;;;;16.34;100.00;98966.41;4988378;28;47415;-73
2023/10/21 07:36:24;;;;;;;;;5.67;0.00;;;;;16.35;100.00;98960.13;4992222;27;45506;-73
2023/10/21 07:38:50;;;;;;;;;2.33;1.00;;;;;16.35;100.00;98946.81;4991726;27;45645;-73
2023/10/21 07:41:16;;;;;;;;;1.00;1.00;;;;;16.36;100.00;98968.09;4992261;28;52381;-73
2023/10/21 07:43:41;;;;;;;;;2.67;1.00;;;;;16.43;100.00;98974.00;4986676;28;46642;-73
2023/10/21 07:46:07;;;;;;;;;1.33;1.33;;;;;16.43;100.00;98980.19;4995892;28;45462;-73
2023/10/21 07:48:32;;;;;;;;;4.67;0.67;;;;;16.44;100.00;98973.94;4995013;28;48572;-73
2023/10/21 07:50:58;;;;;;;;;1.00;1.00;;;;;16.42;100.00;98980.28;4995434;28;45450;-73
2023/10/21 07:53:23;;;;;;;;;2.67;1.00;;;;;16.45;100.00;98969.47;4994900;28;47523;-74
2023/10/21 07:55:49;;;;;;;;;3.33;0.67;;;;;16.45;100.00;98978.31;4994878;27;45611;-73
2023/10/21 07:58:15;;;;;;;;;4.00;1.00;;;;;16.42;100.00;98978.47;4995486;28;45535;-73
2023/10/21 08:00:41;;;;;;;;;4.67;1.00;;;;;16.45;100.00;98988.13;4995105;28;45516;-74
2023/10/21 08:03:06;;;;;;;;;1.00;0.00;;;;;16.52;100.00;98991.41;4994739;28;46527;-74
2023/10/21 08:05:32;;;;;;;;;1.00;1.00;;;;;16.58;100.00;98984.00;4994840;27;45444;-73
2023/10/21 08:07:57;;;;;;;;;2.00;0.67;;;;;16.70;100.00;98999.47;4994671;27;45741;-73
2023/10/21 08:10:22;;;;;;;;;3.00;1.00;;;;;16.72;100.00;98979.00;4995326;28;52752;-74
2023/10/21 08:12:49;;;;;;;;;2.67;1.00;;;;;16.69;100.00;98975.56;4994354;28;62378;-73
2023/10/21 08:15:14;;;;;;;;;4.00;1.00;;;;;16.73;100.00;98991.38;4989922;28;45437;-73
2023/10/21 08:17:40;;;;;;;;;2.67;0.00;;;;;16.75;100.00;98992.16;4994851;28;45391;-74
2023/10/21 08:20:06;;;;;;;;;4.00;1.00;;;;;16.86;100.00;98988.16;4995655;27;45376;-73
2023/10/21 08:22:32;;;;;;;;;1.00;1.00;;;;;16.90;100.00;98981.78;4995017;28;46634;-73
2023/10/21 08:24:58;;;;;;;;;3.00;1.00;;;;;16.95;100.00;98993.09;5016193;28;45471;-73
2023/10/21 08:27:23;;;;;;;;;2.33;0.00;;;;;16.98;100.00;98987.63;4992826;28;45572;-73
2023/10/21 08:29:49;;;;;;;;;1.33;0.33;;;;;17.00;100.00;98999.97;4994704;28;51441;-73
2023/10/21 08:32:15;;;;;;;;;3.33;1.00;;;;;16.96;100.00;98989.50;4994696;28;46292;-74
2023/10/21 08:34:40;;;;;;;;;5.00;0.00;;;;;17.01;100.00;99007.03;4995124;28;45400;-73
2023/10/21 08:37:07;;;;;;;;;6.67;0.67;;;;;17.07;100.00;98995.22;4994737;28;45519;-73
2023/10/21 08:39:34;;;;;;;;;2.00;0.67;;;;;17.14;100.00;99002.00;4995046;28;45580;-73
2023/10/21 08:41:59;;;;;;;;;4.00;1.00;;;;;17.20;100.00;98993.72;4994547;28;46424;-73
2023/10/21 08:44:25;;;;;;;;;1.67;1.00;;;;;17.21;100.00;98984.78;4994386;28;45488;-73
2023/10/21 08:46:54;;;;;;;;;2.00;0.00;;;;;17.25;100.00;98994.38;4994490;28;55044;-73
2023/10/21 08:49:20;;;;;;;;;2.00;1.00;;;;;17.29;100.00;99003.97;4989501;28;45604;-73
2023/10/21 08:51:46;;;;;;;;;2.67;2.67;;;;;17.36;100.00;98996.53;4995102;27;46466;-73
2023/10/21 08:54:12;;;;;;;;;2.33;1.00;;;;;17.41;100.00;98983.00;4990711;28;45547;-73
2023/10/21 08:56:37;;;;;;;;;1.33;1.00;;;;;17.48;100.00;99003.13;4989837;28;45565;-73
2023/10/21 08:59:03;;;;;;;;;3.00;0.67;;;;;17.51;100.00;98994.97;4986752;28;64872;-72
2023/10/21 09:01:29;;;;;;;;;1.00;1.00;;;;;17.49;100.00;98987.03;4988773;28;47311;-73
2023/10/21 09:03:55;;;;;;;;;4.67;2.00;;;;;17.55;100.00;99004.56;4994590;28;45493;-72
2023/10/21 09:06:21;;;;;;;;;4.00;1.00;;;;;17.56;100.00;98998.28;4989919;28;45510;-73
2023/10/21 09:08:47;;;;;;;;;2.00;0.67;;;;;17.54;100.00;99016.19;4992927;28;45518;-72
2023/10/21 09:11:18;;;;;;;;;4.00;2.00;;;;;17.54;100.00;99008.19;4991560;28;45791;-73
2023/10/21 09:13:44;;;;;;;;;3.33;1.00;;;;;17.52;100.00;99024.28;4989765;28;45553;-74
2023/10/21 09:16:21;;;;;;;;;1.33;0.00;;;;;17.57;100.00;99015.16;5001871;28;46843;-73
2023/10/21 09:18:56;;;;;;;;;3.33;1.00;;;;;17.60;100.00;99015.91;4991714;28;45407;-71
2023/10/21 09:21:32;;;;;;;;;0.00;0.00;;;;;17.61;100.00;99004.28;4990921;28;46264;-72
2023/10/21 09:23:58;;;;;;;;;0.00;0.00;;;;;17.71;100.00;99004.72;5001863;28;45438;-71
2023/10/21 09:26:34;;;;;;;;;2.00;1.00;;;;;17.76;100.00;99014.28;4990142;27;45201;-72
2023/10/21 09:29:11;;;;;;;;;2.33;0.00;;;;;17.83;100.00;99024.66;4980969;27;45471;-73
2023/10/21 09:31:56;;;;;;;;;2.00;0.67;;;;;17.83;100.00;99035.34;4988780;28;46991;-72
2023/10/21 09:34:26;;;;;;;;;3.33;0.00;;;;;17.84;100.00;99024.56;5000712;27;45824;-72
2023/10/21 09:37:00;;;;;;;;;1.00;1.00;;;;;17.90;100.00;99026.13;4987842;28;45446;-74
2023/10/21 09:39:43;;;;;;;;;3.00;0.33;;;;;17.99;100.00;99021.16;4990641;28;45638;-71
2023/10/21 09:42:08;;;;;;;;;2.00;1.00;;;;;17.98;100.00;99030.13;4989462;28;46757;-72
2023/10/21 09:44:38;;;;;;;;;3.00;1.00;;;;;17.94;100.00;99033.88;4990438;28;45436;-73
2023/10/21 09:47:06;;;;;;;;;2.00;0.67;;;;;17.94;100.00;99017.84;4990397;28;45933;-73
2023/10/21 09:49:37;;;;;;;;;0.00;0.00;;;;;17.94;100.00;99017.00;4990732;28;45523;-73
2023/10/21 09:52:05;;;;;;;;;1.33;1.00;;;;;17.98;100.00;99037.28;4989653;28;47570;-72
2023/10/21 09:54:40;;;;;;;;;3.33;0.00;;;;;17.99;100.00;99033.66;4990175;28;45447;-74
2023/10/21 09:57:08;;;;;;;;;2.00;0.00;;;;;17.94;100.00;99046.38;4990142;28;45431;-73
2023/10/21 09:59:34;;;;;;;;;3.00;0.00;;;;;17.93;100.00;99032.16;4985609;28;45760;-72
2023/10/21 10:02:01;;;;;;;;;5.67;1.00;;;;;17.98;100.00;99048.81;5004559;28;45775;-73
2023/10/21 10:04:27;;;;;;;;;2.67;1.00;;;;;17.97;100.00;99046.22;4986295;28;45430;-72
2023/10/21 10:06:58;;;;;;;;;3.33;0.33;;;;;17.99;100.00;99047.00;4989487;28;45501;-72
2023/10/21 10:09:27;;;;;;;;;6.00;2.00;;;;;18.09;100.00;99050.97;4990281;28;45585;-72
2023/10/21 10:12:00;;;;;;;;;5.33;2.67;;;;;18.08;100.00;99051.06;4986180;28;46334;-72
2023/10/21 10:14:28;;;;;;;;;2.00;1.00;;;;;18.04;100.00;99037.84;5002406;28;45578;-72
2023/10/21 10:16:54;;;;;;;;;4.33;1.00;;;;;18.09;100.00;99042.97;4999218;28;45884;-72
2023/10/21 10:19:55;;;;;;;;;2.33;0.67;;;;;18.12;100.00;99031.28;4990250;28;45704;-72
2023/10/21 10:22:21;;;;;;;;;3.00;0.00;;;;;18.13;100.00;99020.53;5008508;28;63866;-72
2023/10/21 10:25:10;;;;;;;;;2.00;1.00;;;;;18.33;100.00;99023.06;5000220;28;45515;-72
2023/10/21 10:27:40;;;;;;;;;5.67;1.00;;;;;18.48;100.00;99020.56;4989401;28;45570;-72
2023/10/21 10:30:20;;;;;;;;;2.00;0.00;;;;;18.52;100.00;99020.34;4983739;28;45881;-72
2023/10/21 10:32:49;;;;;;;;;2.33;0.67;;;;;18.57;100.00;99023.63;4987488;27;45742;-73
2023/10/21 10:35:31;;;;;;;;;2.00;0.00;;;;;18.64;100.00;99013.50;4991186;27;45432;-72
2023/10/21 10:38:01;;;;;;;;;2.67;1.67;;;;;18.73;100.00;99022.91;4991870;27;45505;-72
2023/10/21 10:40:38;;;;;;;;;4.00;0.67;;;;;18.83;100.00;99029.50;4995528;27;45510;-72
2023/10/21 10:43:10;;;;;;;;;2.00;1.00;;;;;18.90;100.00;99030.03;4995916;27;46603;-72
2023/10/21 10:45:36;;;;;;;;;2.00;1.00;;;;;18.94;100.00;99036.97;4994782;27;45479;-73
2023/10/21 10:48:03;;;;;;;;;2.00;1.33;;;;;19.00;100.00;99026.81;4996484;27;45369;-73
2023/10/21 10:50:30;;;;;;;;;1.00;1.00;;;;;19.11;100.00;99028.91;5004018;27;45505;-73
2023/10/21 10:52:56;;;;;;;;;5.00;1.00;;;;;19.11;100.00;99037.81;4995701;27;46451;-72
2023/10/21 10:55:22;;;;;;;;;3.33;0.00;;;;;19.10;100.00;99043.25;5001673;27;45430;-72
2023/10/21 10:57:54;;;;;;;;;1.67;0.00;;;;;19.06;100.00;99039.00;4992943;28;45494;-72
2023/10/21 11:00:23;;;;;;;;;1.00;1.00;;;;;19.00;100.00;99044.66;5013239;27;45382;-72
2023/10/21 11:02:52;;;;;;;;;1.00;0.00;;;;;18.99;100.00;99042.94;4993817;27;46692;-73
2023/10/21 11:05:22;;;;;;;;;0.00;0.00;;;;;19.01;100.00;99023.19;5004898;27;45510;-72
2023/10/21 11:07:49;;;;;;;;;2.00;1.00;;;;;19.05;100.00;99031.91;4992447;28;45357;-73
2023/10/21 11:10:21;;;;;;;;;3.67;0.33;;;;;19.07;100.00;99027.38;4996682;27;45604;-73
2023/10/21 11:12:51;;;;;;;;;0.00;0.00;;;;;19.08;100.00;99031.78;4992903;27;47308;-72
2023/10/21 11:15:16;;;;;;;;;1.00;1.00;;;;;19.09;100.00;99036.16;5005154;27;45414;-72
2023/10/21 11:17:51;;;;;;;;;1.33;1.00;;;;;19.05;100.00;99050.66;5020798;27;45322;-72
2023/10/21 11:20:16;;;;;;;;;3.00;0.00;;;;;18.99;100.00;99046.47;5014509;27;45458;-72
2023/10/21 11:22:42;;;;;;;;;0.00;0.00;;;;;18.94;100.00;99031.63;4995573;27;47382;-72